createdAt,value
2022-09-14T00:00:15.422Z,16.10
2022-09-14T00:06:17.421Z,16.20
2022-09-14T00:12:19.820Z,16.30
2022-09-14T00:18:21.708Z,16.30
2022-09-14T00:24:26.607Z,16.30
2022-09-14T00:30:28.624Z,16.40
2022-09-14T00:36:32.450Z,16.50
2022-09-14T00:42:34.358Z,16.40
2022-09-14T00:48:36.315Z,16.30
2022-09-14T00:54:46.631Z,16.20
2022-09-14T01:00:48.637Z,16.20
2022-09-14T01:07:02.918Z,16.10
2022-09-14T01:13:32.605Z,16.00
2022-09-14T01:20:19.483Z,15.90
2022-09-14T01:26:47.257Z,15.70
2022-09-14T01:33:13.169Z,15.60
2022-09-14T01:39:17.593Z,15.60
2022-09-14T01:45:22.581Z,15.60
2022-09-14T01:51:37.916Z,15.60
2022-09-14T01:57:46.280Z,15.60
2022-09-14T02:04:01.611Z,15.50
2022-09-14T02:10:09.193Z,15.30
2022-09-14T02:16:11.263Z,15.20
2022-09-14T02:22:13.609Z,15.20
2022-09-14T02:28:16.431Z,15.20
2022-09-14T02:34:37.214Z,15.10
2022-09-14T02:41:00.174Z,14.90
2022-09-14T02:47:15.064Z,15.00
2022-09-14T02:53:35.799Z,14.90
2022-09-14T02:59:37.853Z,14.80
2022-09-14T03:05:40.226Z,14.90
2022-09-14T03:11:42.185Z,14.90
2022-09-14T03:17:49.098Z,14.90
2022-09-14T03:23:55.083Z,14.80
2022-09-14T03:29:57.017Z,14.80
2022-09-14T03:35:59.604Z,14.80
2022-09-14T03:42:01.531Z,14.80
2022-09-14T03:48:03.555Z,14.80
2022-09-14T03:54:05.504Z,14.80
2022-09-14T04:00:09.112Z,14.70
2022-09-14T04:06:11.569Z,14.70
2022-09-14T04:12:13.524Z,14.60
2022-09-14T04:18:15.390Z,14.70
2022-09-14T04:24:18.006Z,14.60
2022-09-14T04:30:20.294Z,14.60
2022-09-14T04:36:25.999Z,14.50
2022-09-14T04:42:29.633Z,14.60
2022-09-14T04:48:33.739Z,14.70
2022-09-14T04:54:35.724Z,14.70
2022-09-14T05:00:37.660Z,14.80
2022-09-14T05:06:42.186Z,14.80
2022-09-14T05:12:44.120Z,14.90
2022-09-14T05:18:46.916Z,15.00
2022-09-14T05:24:48.850Z,14.90
2022-09-14T05:30:50.803Z,15.00
2022-09-14T05:36:52.765Z,15.10
2022-09-14T05:42:54.666Z,15.10
2022-09-14T05:48:56.642Z,15.20
2022-09-14T05:54:58.518Z,15.30
2022-09-14T06:01:17.950Z,15.40
2022-09-14T06:07:19.970Z,15.40
2022-09-14T06:13:23.387Z,15.40
2022-09-14T06:19:25.292Z,15.50
2022-09-14T06:25:28.136Z,15.40
2022-09-14T06:31:30.115Z,15.40
2022-09-14T06:37:32.015Z,15.40
2022-09-14T06:43:37.584Z,15.40
2022-09-14T06:49:39.522Z,15.40
2022-09-14T06:55:41.448Z,15.40
2022-09-14T07:08:00.094Z,15.40
2022-09-14T07:14:02.273Z,15.40
2022-09-14T07:32:35.187Z,15.70
2022-09-14T07:38:51.711Z,15.80
2022-09-14T07:51:10.667Z,16.00
2022-09-14T07:57:12.574Z,16.20
2022-09-14T08:03:14.473Z,16.20
2022-09-14T08:09:16.392Z,16.20
2022-09-14T08:15:28.238Z,16.20
2022-09-14T08:21:32.907Z,16.20
2022-09-14T08:27:34.776Z,16.10
2022-09-14T08:33:41.542Z,16.10
2022-09-14T08:39:45.356Z,16.20
2022-09-14T08:45:50.771Z,16.20
2022-09-14T08:51:52.987Z,16.30
2022-09-14T08:58:09.852Z,16.40
2022-09-14T09:04:20.405Z,16.50
2022-09-14T09:10:25.665Z,16.60
2022-09-14T09:16:28.511Z,16.70
2022-09-14T09:22:45.332Z,16.70
2022-09-14T09:28:54.379Z,16.80
2022-09-14T09:34:56.309Z,16.90
2022-09-14T09:47:07.407Z,17.20
2022-09-14T09:53:17.245Z,17.30
2022-09-14T09:59:29.322Z,17.40
2022-09-14T10:05:33.071Z,17.50
2022-09-14T10:11:38.954Z,17.50
2022-09-14T10:17:41.304Z,17.40
2022-09-14T10:23:44.401Z,17.40
2022-09-14T10:29:50.008Z,17.40
2022-09-14T10:42:39.063Z,17.50
2022-09-14T10:49:18.330Z,17.80
2022-09-14T10:55:43.811Z,17.70
2022-09-14T11:02:30.701Z,17.50
2022-09-14T11:08:48.307Z,17.20
2022-09-14T11:33:31.397Z,17.30
2022-09-14T11:39:43.146Z,17.40
2022-09-14T11:45:58.883Z,17.50
2022-09-14T11:52:12.336Z,17.30
2022-09-14T11:58:26.130Z,17.30
2022-09-14T12:04:28.038Z,17.40
2022-09-14T12:10:30.312Z,17.50
2022-09-14T12:16:34.626Z,17.50
2022-09-14T12:22:38.104Z,17.20
2022-09-14T12:28:48.399Z,17.10
2022-09-14T12:35:43.366Z,17.00
2022-09-14T12:41:48.143Z,17.00
2022-09-14T12:47:51.834Z,16.90
2022-09-14T12:54:08.409Z,17.00
2022-09-14T13:00:19.912Z,17.00
2022-09-14T13:06:24.070Z,16.90
2022-09-14T13:12:43.199Z,16.90
2022-09-14T13:18:45.111Z,17.00
2022-09-14T13:24:49.031Z,16.90
2022-09-14T13:30:59.893Z,17.00
2022-09-14T13:37:02.602Z,17.10
2022-09-14T13:43:04.834Z,17.20
2022-09-14T13:49:07.769Z,17.30
2022-09-14T13:55:25.672Z,17.40
2022-09-14T14:01:28.967Z,17.50
2022-09-14T14:07:36.349Z,17.50
2022-09-14T14:13:38.594Z,17.50
2022-09-14T14:19:40.738Z,17.60
2022-09-14T14:25:55.191Z,17.50
2022-09-14T14:31:57.239Z,17.40
2022-09-14T14:37:59.455Z,17.20
2022-09-14T14:44:01.676Z,17.30
2022-09-14T14:50:04.008Z,17.30
2022-09-14T14:56:06.279Z,17.10
2022-09-14T15:02:09.589Z,17.10
2022-09-14T15:08:14.458Z,17.00
2022-09-14T15:14:21.336Z,16.90
2022-09-14T15:20:26.242Z,16.90
2022-09-14T15:26:28.162Z,16.90
2022-09-14T15:32:30.215Z,16.80
2022-09-14T15:38:32.146Z,16.80
2022-09-14T15:44:34.068Z,16.70
2022-09-14T15:50:40.288Z,16.70
2022-09-14T15:56:42.198Z,16.70
2022-09-14T16:02:44.190Z,16.60
2022-09-14T16:08:46.084Z,16.50
2022-09-14T16:14:47.986Z,16.40
2022-09-14T16:20:49.895Z,16.30
2022-09-14T16:26:52.763Z,16.30
2022-09-14T16:32:54.611Z,16.30
2022-09-14T16:38:59.680Z,16.10
2022-09-14T16:45:01.795Z,16.10
2022-09-14T16:51:04.155Z,16.10
2022-09-14T16:57:06.064Z,16.00
2022-09-14T17:03:07.931Z,15.80
2022-09-14T17:09:28.643Z,15.70
2022-09-14T17:15:31.093Z,15.60
2022-09-14T17:21:39.124Z,15.50
2022-09-14T17:27:40.990Z,15.40
2022-09-14T17:33:43.145Z,15.20
2022-09-14T17:39:45.067Z,15.20
2022-09-14T17:45:56.502Z,14.90
2022-09-14T17:51:58.354Z,14.80
2022-09-14T17:58:00.214Z,14.80
2022-09-14T18:04:06.672Z,14.80
2022-09-14T18:10:08.782Z,14.80
2022-09-14T18:16:11.452Z,14.70
2022-09-14T18:22:15.640Z,14.70
2022-09-14T18:28:17.608Z,14.60
2022-09-14T18:34:21.298Z,14.70
2022-09-14T18:40:24.215Z,14.70
2022-09-14T18:46:28.430Z,14.60
2022-09-14T18:52:30.608Z,14.60
2022-09-14T18:58:35.302Z,14.50
2022-09-14T19:04:38.402Z,14.60
2022-09-14T19:10:40.697Z,14.40
2022-09-14T19:16:42.765Z,14.40
2022-09-14T19:22:44.658Z,14.50
2022-09-14T19:28:46.993Z,14.40
2022-09-14T19:34:49.530Z,14.40
2022-09-14T19:40:52.965Z,14.40
2022-09-14T19:46:55.889Z,14.40
2022-09-14T19:53:00.230Z,14.40
2022-09-14T19:59:07.377Z,14.50
2022-09-14T20:05:10.590Z,14.50
2022-09-14T20:11:19.743Z,14.50
2022-09-14T20:17:22.327Z,14.50
2022-09-14T20:23:24.197Z,14.30
2022-09-14T20:29:30.081Z,14.30
2022-09-14T20:35:32.287Z,14.30
2022-09-14T20:41:36.027Z,14.30
2022-09-14T20:47:37.947Z,14.30
2022-09-14T20:53:42.499Z,14.10
2022-09-14T20:59:44.333Z,14.00
2022-09-14T21:05:46.197Z,14.00
2022-09-14T21:11:48.265Z,14.00
2022-09-14T21:17:50.130Z,13.90
2022-09-14T21:23:53.360Z,13.80
2022-09-14T21:29:55.194Z,13.80
2022-09-14T21:36:10.479Z,13.70
2022-09-14T21:42:12.343Z,13.70
2022-09-14T21:48:14.212Z,13.60
2022-09-14T21:54:16.517Z,13.50
2022-09-14T22:00:18.882Z,13.40
2022-09-14T22:06:25.058Z,13.30
2022-09-14T22:12:26.903Z,13.30
2022-09-14T22:18:28.743Z,13.30
2022-09-14T22:24:38.112Z,13.30
2022-09-14T22:31:08.055Z,13.10
2022-09-14T22:37:10.065Z,13.20
2022-09-14T22:43:11.934Z,13.10
2022-09-14T22:49:13.799Z,13.10
2022-09-14T22:55:15.767Z,13.00
2022-09-14T23:01:29.479Z,13.00
2022-09-14T23:07:31.830Z,12.80
2022-09-14T23:13:38.605Z,12.80
2022-09-14T23:19:40.659Z,12.60
2022-09-14T23:25:42.541Z,12.80
2022-09-14T23:31:44.632Z,12.80
2022-09-14T23:37:46.578Z,12.80
2022-09-14T23:43:48.640Z,12.80
2022-09-14T23:49:50.532Z,12.80
2022-09-14T23:55:53.352Z,12.70
